Sunol, California
Current Conditions -  °F | °C
As of 5:31 AM on Sunday 23 Nov 2014 (Local Time) from KLVK Reporting Station
Moderate Fog Moderate Fog  
Wind Chill: 46°   Ceiling: 100
Heat Index: 46°   Visibility: 0.25mi
Dew Point: 45°   Wind: 0mph
Humidity: 93%   Direction: NA
Pressure: 30.29"   Gusts: NA
Location:  37.6°N, 121.9°W
Report Text: KLVK 231331Z AUTO 00000KT 1/4SM FG VV001 08/07 A3029 RMK AO2 $
Loading
Personal Weather Stations






























Interactive Weather Map New forecast layout! Learn more

10-Day Weather Forecast

Advertisements
Track Severe Weather on mobile